sensor_id;sensor_type;location;lat;lon;timestamp;P1;durP1;ratioP1;P2;durP2;ratioP2
41755;SDS011;27435;48.480;9.258;2023-07-02T00:01:33;5.57;;;1.30;;
41755;SDS011;27435;48.480;9.258;2023-07-02T00:03:59;4.22;;;1.40;;
41755;SDS011;27435;48.480;9.258;2023-07-02T00:06:25;3.35;;;1.20;;
41755;SDS011;27435;48.480;9.258;2023-07-02T00:08:51;2.03;;;1.20;;
41755;SDS011;27435;48.480;9.258;2023-07-02T00:11:16;3.33;;;1.80;;
41755;SDS011;27435;48.480;9.258;2023-07-02T00:13:42;4.22;;;1.70;;
41755;SDS011;27435;48.480;9.258;2023-07-02T00:16:08;2.78;;;1.90;;
41755;SDS011;27435;48.480;9.258;2023-07-02T00:18:33;2.58;;;1.75;;
41755;SDS011;27435;48.480;9.258;2023-07-02T00:21:02;3.63;;;1.80;;
41755;SDS011;27435;48.480;9.258;2023-07-02T00:23:28;3.03;;;1.63;;
41755;SDS011;27435;48.480;9.258;2023-07-02T00:25:55;3.17;;;2.20;;
41755;SDS011;27435;48.480;9.258;2023-07-02T00:28:21;3.00;;;1.98;;
41755;SDS011;27435;48.480;9.258;2023-07-02T00:30:47;3.83;;;2.08;;
41755;SDS011;27435;48.480;9.258;2023-07-02T00:33:13;3.80;;;2.15;;
41755;SDS011;27435;48.480;9.258;2023-07-02T00:35:38;3.15;;;1.85;;
41755;SDS011;27435;48.480;9.258;2023-07-02T00:38:04;4.65;;;2.20;;
41755;SDS011;27435;48.480;9.258;2023-07-02T00:40:30;3.55;;;1.92;;
41755;SDS011;27435;48.480;9.258;2023-07-02T00:42:55;2.92;;;1.80;;
41755;SDS011;27435;48.480;9.258;2023-07-02T00:45:22;4.95;;;2.10;;
41755;SDS011;27435;48.480;9.258;2023-07-02T00:47:47;3.45;;;1.90;;
41755;SDS011;27435;48.480;9.258;2023-07-02T00:50:14;4.03;;;2.50;;
41755;SDS011;27435;48.480;9.258;2023-07-02T00:52:39;4.68;;;2.60;;
41755;SDS011;27435;48.480;9.258;2023-07-02T00:55:05;3.60;;;2.45;;
41755;SDS011;27435;48.480;9.258;2023-07-02T00:57:31;7.32;;;2.38;;
41755;SDS011;27435;48.480;9.258;2023-07-02T00:59:57;4.18;;;2.72;;
41755;SDS011;27435;48.480;9.258;2023-07-02T01:02:28;5.20;;;2.38;;
41755;SDS011;27435;48.480;9.258;2023-07-02T01:04:54;4.05;;;2.40;;
41755;SDS011;27435;48.480;9.258;2023-07-02T01:07:26;4.63;;;2.80;;
41755;SDS011;27435;48.480;9.258;2023-07-02T01:09:51;7.05;;;3.28;;
41755;SDS011;27435;48.480;9.258;2023-07-02T01:12:17;6.90;;;2.30;;
41755;SDS011;27435;48.480;9.258;2023-07-02T01:14:45;4.85;;;2.42;;
41755;SDS011;27435;48.480;9.258;2023-07-02T01:17:16;5.15;;;2.50;;
41755;SDS011;27435;48.480;9.258;2023-07-02T01:19:50;4.60;;;2.70;;
41755;SDS011;27435;48.480;9.258;2023-07-02T01:22:25;3.60;;;2.50;;
41755;SDS011;27435;48.480;9.258;2023-07-02T01:24:52;6.07;;;3.08;;
41755;SDS011;27435;48.480;9.258;2023-07-02T01:27:19;4.00;;;2.60;;
41755;SDS011;27435;48.480;9.258;2023-07-02T01:29:45;4.22;;;2.55;;
41755;SDS011;27435;48.480;9.258;2023-07-02T01:32:12;5.43;;;2.70;;
41755;SDS011;27435;48.480;9.258;2023-07-02T01:34:38;6.72;;;2.58;;
41755;SDS011;27435;48.480;9.258;2023-07-02T01:37:04;7.40;;;2.50;;
41755;SDS011;27435;48.480;9.258;2023-07-02T01:39:30;5.95;;;2.65;;
41755;SDS011;27435;48.480;9.258;2023-07-02T01:42:17;4.93;;;2.83;;
41755;SDS011;27435;48.480;9.258;2023-07-02T01:44:44;3.80;;;2.70;;
41755;SDS011;27435;48.480;9.258;2023-07-02T01:47:11;4.63;;;2.72;;
41755;SDS011;27435;48.480;9.258;2023-07-02T01:49:37;6.85;;;3.33;;
41755;SDS011;27435;48.480;9.258;2023-07-02T01:52:03;4.88;;;2.70;;
41755;SDS011;27435;48.480;9.258;2023-07-02T01:54:29;6.07;;;3.03;;
41755;SDS011;27435;48.480;9.258;2023-07-02T01:56:59;4.80;;;3.20;;
41755;SDS011;27435;48.480;9.258;2023-07-02T01:59:25;9.57;;;4.00;;
41755;SDS011;27435;48.480;9.258;2023-07-02T02:01:50;4.53;;;2.92;;
41755;SDS011;27435;48.480;9.258;2023-07-02T02:04:17;10.30;;;3.92;;
41755;SDS011;27435;48.480;9.258;2023-07-02T02:06:43;8.23;;;3.83;;
41755;SDS011;27435;48.480;9.258;2023-07-02T02:09:08;10.40;;;3.70;;
41755;SDS011;27435;48.480;9.258;2023-07-02T02:11:39;5.45;;;3.97;;
41755;SDS011;27435;48.480;9.258;2023-07-02T02:14:05;5.45;;;3.50;;
41755;SDS011;27435;48.480;9.258;2023-07-02T02:16:31;6.05;;;4.03;;
41755;SDS011;27435;48.480;9.258;2023-07-02T02:18:58;8.75;;;3.92;;
41755;SDS011;27435;48.480;9.258;2023-07-02T02:21:25;6.28;;;3.53;;
41755;SDS011;27435;48.480;9.258;2023-07-02T02:23:51;7.97;;;3.53;;
41755;SDS011;27435;48.480;9.258;2023-07-02T02:26:17;9.15;;;4.30;;
41755;SDS011;27435;48.480;9.258;2023-07-02T02:28:43;9.25;;;4.35;;
41755;SDS011;27435;48.480;9.258;2023-07-02T02:31:09;6.35;;;4.07;;
41755;SDS011;27435;48.480;9.258;2023-07-02T02:33:35;5.00;;;3.97;;
41755;SDS011;27435;48.480;9.258;2023-07-02T02:36:01;5.70;;;3.92;;
41755;SDS011;27435;48.480;9.258;2023-07-02T02:38:27;6.22;;;4.18;;
41755;SDS011;27435;48.480;9.258;2023-07-02T02:40:52;10.13;;;4.53;;
41755;SDS011;27435;48.480;9.258;2023-07-02T02:43:18;8.63;;;4.68;;
41755;SDS011;27435;48.480;9.258;2023-07-02T02:45:43;8.57;;;4.15;;
41755;SDS011;27435;48.480;9.258;2023-07-02T02:48:09;5.97;;;4.45;;
41755;SDS011;27435;48.480;9.258;2023-07-02T02:50:35;9.77;;;4.70;;
41755;SDS011;27435;48.480;9.258;2023-07-02T02:53:03;6.00;;;4.03;;
41755;SDS011;27435;48.480;9.258;2023-07-02T02:55:29;6.95;;;4.70;;
41755;SDS011;27435;48.480;9.258;2023-07-02T02:57:54;6.32;;;4.53;;
41755;SDS011;27435;48.480;9.258;2023-07-02T03:00:20;13.45;;;4.90;;
41755;SDS011;27435;48.480;9.258;2023-07-02T03:02:45;7.72;;;5.07;;
41755;SDS011;27435;48.480;9.258;2023-07-02T03:05:11;7.00;;;4.30;;
41755;SDS011;27435;48.480;9.258;2023-07-02T03:07:37;8.15;;;4.85;;
41755;SDS011;27435;48.480;9.258;2023-07-02T03:10:03;8.30;;;4.97;;
41755;SDS011;27435;48.480;9.258;2023-07-02T03:12:30;5.57;;;3.80;;
41755;SDS011;27435;48.480;9.258;2023-07-02T03:14:55;7.20;;;4.15;;
41755;SDS011;27435;48.480;9.258;2023-07-02T03:17:21;5.75;;;4.30;;
41755;SDS011;27435;48.480;9.258;2023-07-02T03:19:46;8.27;;;4.43;;
41755;SDS011;27435;48.480;9.258;2023-07-02T03:22:12;5.57;;;3.70;;
41755;SDS011;27435;48.480;9.258;2023-07-02T03:24:38;6.50;;;4.13;;
41755;SDS011;27435;48.480;9.258;2023-07-02T03:27:04;8.85;;;4.72;;
41755;SDS011;27435;48.480;9.258;2023-07-02T03:29:31;7.43;;;4.57;;
41755;SDS011;27435;48.480;9.258;2023-07-02T03:31:57;8.23;;;4.68;;
41755;SDS011;27435;48.480;9.258;2023-07-02T03:34:23;5.25;;;4.00;;
41755;SDS011;27435;48.480;9.258;2023-07-02T03:36:49;7.88;;;4.57;;
41755;SDS011;27435;48.480;9.258;2023-07-02T03:39:15;6.63;;;4.03;;
41755;SDS011;27435;48.480;9.258;2023-07-02T03:41:41;7.53;;;4.50;;
41755;SDS011;27435;48.480;9.258;2023-07-02T03:44:07;7.18;;;4.18;;
41755;SDS011;27435;48.480;9.258;2023-07-02T03:46:33;7.32;;;3.63;;
41755;SDS011;27435;48.480;9.258;2023-07-02T03:48:59;7.63;;;4.57;;
41755;SDS011;27435;48.480;9.258;2023-07-02T03:51:24;5.95;;;4.22;;
41755;SDS011;27435;48.480;9.258;2023-07-02T03:53:50;7.38;;;3.55;;
41755;SDS011;27435;48.480;9.258;2023-07-02T03:56:15;5.85;;;3.30;;
41755;SDS011;27435;48.480;9.258;2023-07-02T03:58:41;4.53;;;2.88;;
41755;SDS011;27435;48.480;9.258;2023-07-02T04:01:07;5.68;;;2.80;;
41755;SDS011;27435;48.480;9.258;2023-07-02T04:03:33;5.45;;;2.45;;
41755;SDS011;27435;48.480;9.258;2023-07-02T04:05:59;4.13;;;2.50;;
41755;SDS011;27435;48.480;9.258;2023-07-02T04:08:25;5.30;;;3.05;;
41755;SDS011;27435;48.480;9.258;2023-07-02T04:10:53;5.30;;;3.22;;
41755;SDS011;27435;48.480;9.258;2023-07-02T04:13:19;5.47;;;3.10;;
41755;SDS011;27435;48.480;9.258;2023-07-02T04:15:44;6.55;;;4.13;;
41755;SDS011;27435;48.480;9.258;2023-07-02T04:18:10;5.53;;;3.63;;
41755;SDS011;27435;48.480;9.258;2023-07-02T04:20:36;7.50;;;4.55;;
41755;SDS011;27435;48.480;9.258;2023-07-02T04:23:03;9.90;;;4.43;;
41755;SDS011;27435;48.480;9.258;2023-07-02T04:25:30;6.40;;;4.18;;
41755;SDS011;27435;48.480;9.258;2023-07-02T04:27:55;7.60;;;5.00;;
41755;SDS011;27435;48.480;9.258;2023-07-02T04:30:23;8.82;;;4.43;;
41755;SDS011;27435;48.480;9.258;2023-07-02T04:32:50;10.40;;;4.72;;
41755;SDS011;27435;48.480;9.258;2023-07-02T04:35:18;10.82;;;4.78;;
41755;SDS011;27435;48.480;9.258;2023-07-02T04:37:44;6.80;;;4.38;;
41755;SDS011;27435;48.480;9.258;2023-07-02T04:40:10;7.80;;;4.50;;
41755;SDS011;27435;48.480;9.258;2023-07-02T04:42:36;7.28;;;4.68;;
41755;SDS011;27435;48.480;9.258;2023-07-02T04:45:05;4.50;;;2.88;;
41755;SDS011;27435;48.480;9.258;2023-07-02T04:47:32;8.00;;;4.10;;
41755;SDS011;27435;48.480;9.258;2023-07-02T04:49:58;8.30;;;3.45;;
41755;SDS011;27435;48.480;9.258;2023-07-02T04:52:24;6.53;;;3.50;;
41755;SDS011;27435;48.480;9.258;2023-07-02T04:54:49;4.43;;;2.60;;
41755;SDS011;27435;48.480;9.258;2023-07-02T04:57:15;5.45;;;3.10;;
41755;SDS011;27435;48.480;9.258;2023-07-02T04:59:41;3.70;;;2.60;;
41755;SDS011;27435;48.480;9.258;2023-07-02T05:02:07;5.00;;;2.97;;
41755;SDS011;27435;48.480;9.258;2023-07-02T05:04:33;6.07;;;2.65;;
41755;SDS011;27435;48.480;9.258;2023-07-02T05:07:00;8.07;;;2.67;;
41755;SDS011;27435;48.480;9.258;2023-07-02T05:09:26;5.15;;;2.97;;
41755;SDS011;27435;48.480;9.258;2023-07-02T05:11:51;4.70;;;2.88;;
41755;SDS011;27435;48.480;9.258;2023-07-02T05:14:17;4.95;;;2.95;;
41755;SDS011;27435;48.480;9.258;2023-07-02T05:16:42;3.63;;;2.50;;
41755;SDS011;27435;48.480;9.258;2023-07-02T05:19:08;4.95;;;2.72;;
41755;SDS011;27435;48.480;9.258;2023-07-02T05:21:34;3.00;;;2.10;;
41755;SDS011;27435;48.480;9.258;2023-07-02T05:23:59;3.38;;;2.15;;
41755;SDS011;27435;48.480;9.258;2023-07-02T05:26:25;5.93;;;2.45;;
41755;SDS011;27435;48.480;9.258;2023-07-02T05:28:52;3.75;;;2.30;;
41755;SDS011;27435;48.480;9.258;2023-07-02T05:31:18;4.05;;;2.28;;
41755;SDS011;27435;48.480;9.258;2023-07-02T05:33:43;4.07;;;2.28;;
41755;SDS011;27435;48.480;9.258;2023-07-02T05:36:09;4.72;;;1.95;;
41755;SDS011;27435;48.480;9.258;2023-07-02T05:38:35;6.05;;;2.38;;
41755;SDS011;27435;48.480;9.258;2023-07-02T05:41:01;4.63;;;2.30;;
41755;SDS011;27435;48.480;9.258;2023-07-02T05:43:27;7.50;;;2.47;;
41755;SDS011;27435;48.480;9.258;2023-07-02T05:45:53;5.05;;;2.30;;
41755;SDS011;27435;48.480;9.258;2023-07-02T05:48:19;4.25;;;2.70;;
41755;SDS011;27435;48.480;9.258;2023-07-02T05:50:45;4.45;;;2.45;;
41755;SDS011;27435;48.480;9.258;2023-07-02T05:53:11;4.13;;;2.40;;
41755;SDS011;27435;48.480;9.258;2023-07-02T05:55:37;3.85;;;2.28;;
41755;SDS011;27435;48.480;9.258;2023-07-02T05:58:02;7.53;;;1.90;;
41755;SDS011;27435;48.480;9.258;2023-07-02T06:00:28;5.68;;;2.10;;
41755;SDS011;27435;48.480;9.258;2023-07-02T06:02:54;4.10;;;2.30;;
41755;SDS011;27435;48.480;9.258;2023-07-02T06:05:20;5.63;;;2.20;;
41755;SDS011;27435;48.480;9.258;2023-07-02T06:07:46;2.42;;;1.67;;
41755;SDS011;27435;48.480;9.258;2023-07-02T06:10:11;3.75;;;1.67;;
41755;SDS011;27435;48.480;9.258;2023-07-02T06:12:37;8.13;;;2.00;;
41755;SDS011;27435;48.480;9.258;2023-07-02T06:15:03;3.55;;;2.00;;
41755;SDS011;27435;48.480;9.258;2023-07-02T06:17:29;5.78;;;1.55;;
41755;SDS011;27435;48.480;9.258;2023-07-02T06:19:56;2.60;;;1.20;;
41755;SDS011;27435;48.480;9.258;2023-07-02T06:22:22;3.90;;;1.30;;
41755;SDS011;27435;48.480;9.258;2023-07-02T06:24:48;2.58;;;1.05;;
41755;SDS011;27435;48.480;9.258;2023-07-02T06:27:14;4.88;;;1.30;;
41755;SDS011;27435;48.480;9.258;2023-07-02T06:29:40;5.70;;;1.42;;
41755;SDS011;27435;48.480;9.258;2023-07-02T06:32:05;4.90;;;1.38;;
41755;SDS011;27435;48.480;9.258;2023-07-02T06:34:31;4.35;;;1.80;;
41755;SDS011;27435;48.480;9.258;2023-07-02T06:36:57;3.47;;;1.60;;
41755;SDS011;27435;48.480;9.258;2023-07-02T06:39:22;3.75;;;2.03;;
41755;SDS011;27435;48.480;9.258;2023-07-02T06:41:48;5.45;;;1.88;;
41755;SDS011;27435;48.480;9.258;2023-07-02T06:44:14;3.60;;;1.92;;
41755;SDS011;27435;48.480;9.258;2023-07-02T06:46:39;6.30;;;2.05;;
41755;SDS011;27435;48.480;9.258;2023-07-02T06:49:05;5.47;;;2.20;;
41755;SDS011;27435;48.480;9.258;2023-07-02T06:51:30;5.03;;;2.50;;
41755;SDS011;27435;48.480;9.258;2023-07-02T06:53:56;5.85;;;2.03;;
41755;SDS011;27435;48.480;9.258;2023-07-02T06:56:22;4.97;;;1.83;;
41755;SDS011;27435;48.480;9.258;2023-07-02T06:58:47;4.30;;;2.15;;
41755;SDS011;27435;48.480;9.258;2023-07-02T07:01:13;7.68;;;2.20;;
41755;SDS011;27435;48.480;9.258;2023-07-02T07:03:38;6.07;;;2.13;;
41755;SDS011;27435;48.480;9.258;2023-07-02T07:06:04;5.55;;;2.38;;
41755;SDS011;27435;48.480;9.258;2023-07-02T07:08:30;7.57;;;2.53;;
41755;SDS011;27435;48.480;9.258;2023-07-02T07:10:55;6.70;;;2.92;;
41755;SDS011;27435;48.480;9.258;2023-07-02T07:13:21;6.78;;;2.45;;
41755;SDS011;27435;48.480;9.258;2023-07-02T07:15:46;7.00;;;2.42;;
41755;SDS011;27435;48.480;9.258;2023-07-02T07:18:12;6.93;;;3.53;;
41755;SDS011;27435;48.480;9.258;2023-07-02T07:20:39;10.82;;;3.92;;
41755;SDS011;27435;48.480;9.258;2023-07-02T07:23:07;9.40;;;3.75;;
41755;SDS011;27435;48.480;9.258;2023-07-02T07:25:33;7.28;;;3.10;;
41755;SDS011;27435;48.480;9.258;2023-07-02T07:27:59;6.90;;;3.20;;
41755;SDS011;27435;48.480;9.258;2023-07-02T07:30:25;12.07;;;3.75;;
41755;SDS011;27435;48.480;9.258;2023-07-02T07:32:54;8.55;;;3.65;;
41755;SDS011;27435;48.480;9.258;2023-07-02T07:35:21;8.55;;;3.78;;
41755;SDS011;27435;48.480;9.258;2023-07-02T07:37:47;10.15;;;4.28;;
41755;SDS011;27435;48.480;9.258;2023-07-02T07:40:13;7.05;;;3.05;;
41755;SDS011;27435;48.480;9.258;2023-07-02T07:42:40;9.38;;;3.22;;
41755;SDS011;27435;48.480;9.258;2023-07-02T07:45:07;9.82;;;3.78;;
41755;SDS011;27435;48.480;9.258;2023-07-02T07:47:34;6.05;;;3.80;;
41755;SDS011;27435;48.480;9.258;2023-07-02T07:49:59;8.57;;;4.03;;
41755;SDS011;27435;48.480;9.258;2023-07-02T07:52:25;9.90;;;5.00;;
41755;SDS011;27435;48.480;9.258;2023-07-02T07:54:52;7.93;;;4.15;;
41755;SDS011;27435;48.480;9.258;2023-07-02T07:57:18;12.32;;;4.68;;
41755;SDS011;27435;48.480;9.258;2023-07-02T07:59:44;14.02;;;4.75;;
41755;SDS011;27435;48.480;9.258;2023-07-02T08:02:09;13.85;;;4.57;;
41755;SDS011;27435;48.480;9.258;2023-07-02T08:04:35;11.43;;;4.20;;
41755;SDS011;27435;48.480;9.258;2023-07-02T08:07:01;13.48;;;4.93;;
41755;SDS011;27435;48.480;9.258;2023-07-02T08:09:29;12.98;;;5.15;;
41755;SDS011;27435;48.480;9.258;2023-07-02T08:11:55;11.95;;;5.45;;
41755;SDS011;27435;48.480;9.258;2023-07-02T08:14:20;11.68;;;4.82;;
41755;SDS011;27435;48.480;9.258;2023-07-02T08:16:46;13.38;;;4.82;;
41755;SDS011;27435;48.480;9.258;2023-07-02T08:19:12;14.70;;;6.07;;
41755;SDS011;27435;48.480;9.258;2023-07-02T08:21:37;12.82;;;4.75;;
41755;SDS011;27435;48.480;9.258;2023-07-02T08:24:03;14.35;;;6.00;;
41755;SDS011;27435;48.480;9.258;2023-07-02T08:26:29;18.38;;;5.95;;
41755;SDS011;27435;48.480;9.258;2023-07-02T08:28:55;11.23;;;5.63;;
41755;SDS011;27435;48.480;9.258;2023-07-02T08:31:20;12.07;;;5.80;;
41755;SDS011;27435;48.480;9.258;2023-07-02T08:33:46;11.15;;;4.95;;
41755;SDS011;27435;48.480;9.258;2023-07-02T08:36:11;12.63;;;5.32;;
41755;SDS011;27435;48.480;9.258;2023-07-02T08:38:38;11.20;;;5.90;;
41755;SDS011;27435;48.480;9.258;2023-07-02T08:41:07;11.65;;;5.45;;
41755;SDS011;27435;48.480;9.258;2023-07-02T08:43:32;14.90;;;6.25;;
41755;SDS011;27435;48.480;9.258;2023-07-02T08:45:59;16.52;;;6.10;;
41755;SDS011;27435;48.480;9.258;2023-07-02T08:48:25;15.30;;;6.10;;
41755;SDS011;27435;48.480;9.258;2023-07-02T08:50:53;18.33;;;8.32;;
41755;SDS011;27435;48.480;9.258;2023-07-02T08:53:19;15.15;;;6.90;;
41755;SDS011;27435;48.480;9.258;2023-07-02T08:55:50;13.82;;;6.22;;
41755;SDS011;27435;48.480;9.258;2023-07-02T08:58:15;17.42;;;7.88;;
41755;SDS011;27435;48.480;9.258;2023-07-02T09:01:03;14.90;;;7.30;;
41755;SDS011;27435;48.480;9.258;2023-07-02T09:03:33;14.07;;;6.53;;
41755;SDS011;27435;48.480;9.258;2023-07-02T09:05:59;14.93;;;6.40;;
41755;SDS011;27435;48.480;9.258;2023-07-02T09:08:25;14.20;;;6.53;;
41755;SDS011;27435;48.480;9.258;2023-07-02T09:10:52;28.95;;;9.10;;
41755;SDS011;27435;48.480;9.258;2023-07-02T09:13:18;16.90;;;7.50;;
41755;SDS011;27435;48.480;9.258;2023-07-02T09:15:45;21.02;;;8.35;;
41755;SDS011;27435;48.480;9.258;2023-07-02T09:18:20;17.63;;;8.00;;
41755;SDS011;27435;48.480;9.258;2023-07-02T09:20:49;15.43;;;7.75;;
41755;SDS011;27435;48.480;9.258;2023-07-02T09:23:16;16.23;;;6.60;;
41755;SDS011;27435;48.480;9.258;2023-07-02T09:25:41;16.95;;;7.97;;
41755;SDS011;27435;48.480;9.258;2023-07-02T09:28:14;13.50;;;7.00;;
41755;SDS011;27435;48.480;9.258;2023-07-02T09:30:56;16.35;;;7.07;;
41755;SDS011;27435;48.480;9.258;2023-07-02T09:33:23;14.18;;;7.35;;
41755;SDS011;27435;48.480;9.258;2023-07-02T09:35:49;16.90;;;7.68;;
41755;SDS011;27435;48.480;9.258;2023-07-02T09:38:16;14.15;;;7.35;;
41755;SDS011;27435;48.480;9.258;2023-07-02T09:40:46;14.98;;;7.30;;
41755;SDS011;27435;48.480;9.258;2023-07-02T09:43:15;13.98;;;6.95;;
41755;SDS011;27435;48.480;9.258;2023-07-02T09:45:45;13.35;;;7.80;;
41755;SDS011;27435;48.480;9.258;2023-07-02T09:48:16;18.92;;;8.55;;
41755;SDS011;27435;48.480;9.258;2023-07-02T09:50:46;17.23;;;7.32;;
41755;SDS011;27435;48.480;9.258;2023-07-02T09:53:14;17.45;;;8.02;;
41755;SDS011;27435;48.480;9.258;2023-07-02T09:55:41;12.27;;;6.88;;
41755;SDS011;27435;48.480;9.258;2023-07-02T09:58:08;15.13;;;6.70;;
41755;SDS011;27435;48.480;9.258;2023-07-02T10:00:35;21.13;;;8.18;;
41755;SDS011;27435;48.480;9.258;2023-07-02T10:03:01;13.35;;;7.13;;
41755;SDS011;27435;48.480;9.258;2023-07-02T10:05:30;21.00;;;9.18;;
41755;SDS011;27435;48.480;9.258;2023-07-02T10:07:57;19.27;;;7.85;;
41755;SDS011;27435;48.480;9.258;2023-07-02T10:10:27;17.63;;;7.90;;
41755;SDS011;27435;48.480;9.258;2023-07-02T10:12:56;21.20;;;8.38;;
41755;SDS011;27435;48.480;9.258;2023-07-02T10:15:29;13.13;;;7.25;;
41755;SDS011;27435;48.480;9.258;2023-07-02T10:17:56;19.70;;;9.15;;
41755;SDS011;27435;48.480;9.258;2023-07-02T10:20:36;18.88;;;9.45;;
41755;SDS011;27435;48.480;9.258;2023-07-02T10:23:07;17.63;;;8.52;;
41755;SDS011;27435;48.480;9.258;2023-07-02T10:25:34;18.48;;;8.43;;
41755;SDS011;27435;48.480;9.258;2023-07-02T10:28:13;19.33;;;9.55;;
41755;SDS011;27435;48.480;9.258;2023-07-02T10:30:40;23.15;;;10.70;;
41755;SDS011;27435;48.480;9.258;2023-07-02T10:33:12;21.55;;;10.18;;
41755;SDS011;27435;48.480;9.258;2023-07-02T10:35:40;24.02;;;10.98;;
41755;SDS011;27435;48.480;9.258;2023-07-02T10:38:07;22.67;;;10.70;;
41755;SDS011;27435;48.480;9.258;2023-07-02T10:40:39;19.85;;;10.18;;
41755;SDS011;27435;48.480;9.258;2023-07-02T10:43:04;22.48;;;10.40;;
41755;SDS011;27435;48.480;9.258;2023-07-02T10:45:32;22.52;;;10.25;;
41755;SDS011;27435;48.480;9.258;2023-07-02T10:48:01;21.85;;;10.32;;
41755;SDS011;27435;48.480;9.258;2023-07-02T10:50:33;21.30;;;10.17;;
41755;SDS011;27435;48.480;9.258;2023-07-02T10:52:59;19.58;;;10.10;;
41755;SDS011;27435;48.480;9.258;2023-07-02T10:55:25;20.83;;;10.75;;
41755;SDS011;27435;48.480;9.258;2023-07-02T10:58:02;19.85;;;10.82;;
41755;SDS011;27435;48.480;9.258;2023-07-02T11:00:32;23.85;;;11.35;;
41755;SDS011;27435;48.480;9.258;2023-07-02T11:03:15;24.30;;;11.68;;
41755;SDS011;27435;48.480;9.258;2023-07-02T11:05:44;23.45;;;11.27;;
41755;SDS011;27435;48.480;9.258;2023-07-02T11:08:10;25.05;;;11.93;;
41755;SDS011;27435;48.480;9.258;2023-07-02T11:10:36;19.83;;;9.85;;
41755;SDS011;27435;48.480;9.258;2023-07-02T11:13:18;25.70;;;10.43;;
41755;SDS011;27435;48.480;9.258;2023-07-02T11:15:45;21.70;;;11.15;;
41755;SDS011;27435;48.480;9.258;2023-07-02T11:18:11;23.83;;;11.00;;
41755;SDS011;27435;48.480;9.258;2023-07-02T11:20:38;27.35;;;12.18;;
41755;SDS011;27435;48.480;9.258;2023-07-02T11:23:04;19.67;;;9.35;;
41755;SDS011;27435;48.480;9.258;2023-07-02T11:25:31;26.45;;;13.73;;
41755;SDS011;27435;48.480;9.258;2023-07-02T11:28:03;26.38;;;14.82;;
41755;SDS011;27435;48.480;9.258;2023-07-02T11:30:29;28.13;;;13.50;;
41755;SDS011;27435;48.480;9.258;2023-07-02T11:32:55;26.23;;;13.45;;
41755;SDS011;27435;48.480;9.258;2023-07-02T11:35:21;23.10;;;11.93;;
41755;SDS011;27435;48.480;9.258;2023-07-02T11:37:58;26.05;;;13.02;;
41755;SDS011;27435;48.480;9.258;2023-07-02T11:40:24;22.95;;;12.25;;
41755;SDS011;27435;48.480;9.258;2023-07-02T11:42:49;23.50;;;12.45;;
41755;SDS011;27435;48.480;9.258;2023-07-02T11:45:15;25.50;;;11.02;;
41755;SDS011;27435;48.480;9.258;2023-07-02T11:47:41;24.90;;;12.05;;
41755;SDS011;27435;48.480;9.258;2023-07-02T11:50:07;32.72;;;14.70;;
41755;SDS011;27435;48.480;9.258;2023-07-02T11:52:33;24.58;;;12.65;;
41755;SDS011;27435;48.480;9.258;2023-07-02T11:54:58;33.15;;;13.68;;
41755;SDS011;27435;48.480;9.258;2023-07-02T11:57:24;21.15;;;11.68;;
41755;SDS011;27435;48.480;9.258;2023-07-02T11:59:50;25.35;;;12.40;;
41755;SDS011;27435;48.480;9.258;2023-07-02T12:02:17;25.50;;;11.48;;
41755;SDS011;27435;48.480;9.258;2023-07-02T12:04:43;23.25;;;11.73;;
41755;SDS011;27435;48.480;9.258;2023-07-02T12:07:09;19.58;;;10.30;;
41755;SDS011;27435;48.480;9.258;2023-07-02T12:09:35;22.52;;;12.63;;
41755;SDS011;27435;48.480;9.258;2023-07-02T12:12:01;23.45;;;11.63;;
41755;SDS011;27435;48.480;9.258;2023-07-02T12:14:27;22.88;;;12.18;;
41755;SDS011;27435;48.480;9.258;2023-07-02T12:16:52;23.27;;;12.02;;
41755;SDS011;27435;48.480;9.258;2023-07-02T12:19:18;25.92;;;10.93;;
41755;SDS011;27435;48.480;9.258;2023-07-02T12:21:43;23.73;;;11.65;;
41755;SDS011;27435;48.480;9.258;2023-07-02T12:24:09;25.63;;;12.88;;
41755;SDS011;27435;48.480;9.258;2023-07-02T12:26:36;21.25;;;12.00;;
41755;SDS011;27435;48.480;9.258;2023-07-02T12:29:01;21.58;;;11.15;;
41755;SDS011;27435;48.480;9.258;2023-07-02T12:31:27;23.35;;;12.02;;
41755;SDS011;27435;48.480;9.258;2023-07-02T12:33:53;20.02;;;11.20;;
41755;SDS011;27435;48.480;9.258;2023-07-02T12:36:18;20.50;;;12.55;;
41755;SDS011;27435;48.480;9.258;2023-07-02T12:38:44;24.60;;;13.32;;
41755;SDS011;27435;48.480;9.258;2023-07-02T12:41:10;23.17;;;12.68;;
41755;SDS011;27435;48.480;9.258;2023-07-02T12:43:35;24.63;;;12.77;;
41755;SDS011;27435;48.480;9.258;2023-07-02T12:46:01;27.20;;;12.18;;
41755;SDS011;27435;48.480;9.258;2023-07-02T12:48:26;23.25;;;12.48;;
41755;SDS011;27435;48.480;9.258;2023-07-02T12:50:53;20.92;;;11.13;;
41755;SDS011;27435;48.480;9.258;2023-07-02T12:53:22;18.77;;;10.27;;
41755;SDS011;27435;48.480;9.258;2023-07-02T12:55:49;20.38;;;10.32;;
41755;SDS011;27435;48.480;9.258;2023-07-02T12:58:14;23.40;;;12.73;;
41755;SDS011;27435;48.480;9.258;2023-07-02T13:00:40;18.25;;;9.50;;
41755;SDS011;27435;48.480;9.258;2023-07-02T13:03:10;20.88;;;10.65;;
41755;SDS011;27435;48.480;9.258;2023-07-02T13:05:37;21.05;;;11.18;;
41755;SDS011;27435;48.480;9.258;2023-07-02T13:08:03;23.45;;;12.07;;
41755;SDS011;27435;48.480;9.258;2023-07-02T13:10:29;22.45;;;11.30;;
41755;SDS011;27435;48.480;9.258;2023-07-02T13:12:55;21.13;;;10.68;;
41755;SDS011;27435;48.480;9.258;2023-07-02T13:15:21;19.65;;;10.85;;
41755;SDS011;27435;48.480;9.258;2023-07-02T13:17:47;20.02;;;11.90;;
41755;SDS011;27435;48.480;9.258;2023-07-02T13:20:13;23.20;;;11.85;;
41755;SDS011;27435;48.480;9.258;2023-07-02T13:22:39;22.75;;;11.07;;
41755;SDS011;27435;48.480;9.258;2023-07-02T13:25:05;21.80;;;12.23;;
41755;SDS011;27435;48.480;9.258;2023-07-02T13:27:31;21.48;;;12.13;;
41755;SDS011;27435;48.480;9.258;2023-07-02T13:29:57;20.95;;;11.15;;
41755;SDS011;27435;48.480;9.258;2023-07-02T13:32:23;21.92;;;12.25;;
41755;SDS011;27435;48.480;9.258;2023-07-02T13:34:49;18.70;;;12.07;;
41755;SDS011;27435;48.480;9.258;2023-07-02T13:37:15;21.85;;;12.23;;
41755;SDS011;27435;48.480;9.258;2023-07-02T13:39:44;22.13;;;12.35;;
41755;SDS011;27435;48.480;9.258;2023-07-02T13:42:10;23.17;;;12.65;;
41755;SDS011;27435;48.480;9.258;2023-07-02T13:44:36;22.90;;;12.38;;
41755;SDS011;27435;48.480;9.258;2023-07-02T13:47:01;20.90;;;12.63;;
41755;SDS011;27435;48.480;9.258;2023-07-02T13:49:27;26.15;;;12.65;;
41755;SDS011;27435;48.480;9.258;2023-07-02T13:51:53;21.48;;;12.63;;
41755;SDS011;27435;48.480;9.258;2023-07-02T13:54:18;23.67;;;12.98;;
41755;SDS011;27435;48.480;9.258;2023-07-02T13:56:45;25.27;;;14.20;;
41755;SDS011;27435;48.480;9.258;2023-07-02T13:59:14;25.67;;;14.35;;
41755;SDS011;27435;48.480;9.258;2023-07-02T14:01:41;25.52;;;14.82;;
41755;SDS011;27435;48.480;9.258;2023-07-02T14:04:07;21.92;;;13.85;;
41755;SDS011;27435;48.480;9.258;2023-07-02T14:06:33;21.30;;;12.98;;
41755;SDS011;27435;48.480;9.258;2023-07-02T14:08:59;22.73;;;12.27;;
41755;SDS011;27435;48.480;9.258;2023-07-02T14:11:25;22.10;;;12.90;;
41755;SDS011;27435;48.480;9.258;2023-07-02T14:13:52;24.48;;;13.25;;
41755;SDS011;27435;48.480;9.258;2023-07-02T14:16:19;21.25;;;12.40;;
41755;SDS011;27435;48.480;9.258;2023-07-02T14:18:44;26.58;;;13.13;;
41755;SDS011;27435;48.480;9.258;2023-07-02T14:21:10;24.38;;;13.30;;
41755;SDS011;27435;48.480;9.258;2023-07-02T14:23:36;22.42;;;12.02;;
41755;SDS011;27435;48.480;9.258;2023-07-02T14:26:01;23.00;;;12.20;;
41755;SDS011;27435;48.480;9.258;2023-07-02T14:28:27;24.33;;;13.18;;
41755;SDS011;27435;48.480;9.258;2023-07-02T14:30:58;23.75;;;13.88;;
41755;SDS011;27435;48.480;9.258;2023-07-02T14:33:25;24.20;;;14.18;;
41755;SDS011;27435;48.480;9.258;2023-07-02T14:35:52;28.75;;;12.80;;